Time;durP1;ratioP1;P1;durP2;ratioP2;P2;SDS_P1;SDS_P2;PMS_P1;PMS_P2;Temp;Humidity;BMP_temperature;BMP_pressure;BME280_temperature;BME280_humidity;BME280_pressure;Samples;Min_cycle;Max_cycle;Signal;HPM_P1;HPM_P2
2021/05/07 10:50:41;;;;;;;31.95;30.30;;;;;;;;;;5111241;27;20467;-76
2021/05/07 10:53:07;;;;;;;32.50;31.40;;;;;;;;;;5111190;28;20182;-77
2021/05/07 10:55:34;;;;;;;29.63;28.63;;;;;;;;;;5111212;28;20170;-77
2021/05/07 10:58:06;;;;;;;31.45;30.33;;;;;;;;;;5111214;28;20167;-72
2021/05/07 11:00:33;;;;;;;30.08;29.08;;;;;;;;;;5111127;28;20163;-72
2021/05/07 11:02:59;;;;;;;29.80;28.80;;;;;;;;;;5110977;28;20163;-72
2021/05/07 11:06:00;;;;;;;32.85;31.67;;;;;;;;;;5110935;28;20162;-72
2021/05/07 11:08:33;;;;;;;32.63;31.42;;;;;;;;;;5074236;28;20199;-71
2021/05/07 11:10:59;;;;;;;30.38;29.35;;;;;;;;;;5082848;28;20531;-71
2021/05/07 11:13:26;;;;;;;30.30;29.30;;;;;;;;;;5089199;28;20222;-72
2021/05/07 11:15:59;;;;;;;30.85;29.75;;;;;;;;;;5090434;28;20641;-71
2021/05/07 11:18:29;;;;;;;30.95;29.77;;;;;;;;;;5089012;28;20175;-70
2021/05/07 11:20:56;;;;;;;31.55;30.35;;;;;;;;;;5089044;28;20209;-70
2021/05/07 11:23:28;;;;;;;29.17;28.10;;;;;;;;;;5090368;28;20164;-70
2021/05/07 11:25:55;;;;;;;31.30;30.10;;;;;;;;;;5090244;28;20182;-70
2021/05/07 11:28:21;;;;;;;28.70;27.73;;;;;;;;;;5090149;28;20164;-70
2021/05/07 11:30:54;;;;;;;29.95;28.85;;;;;;;;;;5090094;28;20165;-70
2021/05/07 11:33:21;;;;;;;28.60;27.60;;;;;;;;;;5090137;28;20179;-68
2021/05/07 11:35:47;;;;;;;29.73;28.73;;;;;;;;;;5090058;28;20186;-68
2021/05/07 11:38:16;;;;;;;29.10;27.98;;;;;;;;;;5090027;28;20175;-68
2021/05/07 11:40:42;;;;;;;29.20;28.20;;;;;;;;;;5089969;28;20679;-69
2021/05/07 11:43:13;;;;;;;29.90;28.90;;;;;;;;;;5089840;28;20175;-69
2021/05/07 11:45:40;;;;;;;30.40;29.40;;;;;;;;;;5088607;28;20533;-68
2021/05/07 11:48:09;;;;;;;30.63;29.52;;;;;;;;;;5089872;28;20637;-72
2021/05/07 11:50:36;;;;;;;29.90;28.90;;;;;;;;;;5089533;28;20294;-72
2021/05/07 11:53:02;;;;;;;30.52;29.42;;;;;;;;;;5089751;28;20172;-72
2021/05/07 11:55:30;;;;;;;33.08;30.92;;;;;;;;;;5089604;28;20699;-72
2021/05/07 11:57:56;;;;;;;33.00;31.85;;;;;;;;;;5089662;28;20255;-72
2021/05/07 12:00:22;;;;;;;31.77;30.67;;;;;;;;;;5084229;28;20621;-72
2021/05/07 12:02:58;;;;;;;30.08;29.08;;;;;;;;;;5076272;28;20204;-72
2021/05/07 12:05:30;;;;;;;31.48;30.38;;;;;;;;;;5076038;28;20195;-71
2021/05/07 12:07:56;;;;;;;31.40;30.30;;;;;;;;;;5075886;28;20199;-72
2021/05/07 12:10:23;;;;;;;31.92;30.83;;;;;;;;;;5075821;28;20226;-72
2021/05/07 12:12:49;;;;;;;33.03;31.83;;;;;;;;;;5075964;28;20203;-72
2021/05/07 12:15:15;;;;;;;31.50;30.40;;;;;;;;;;5075905;28;20168;-72
2021/05/07 12:17:42;;;;;;;31.67;30.58;;;;;;;;;;5075847;28;20521;-72
2021/05/07 12:20:10;;;;;;;31.58;30.48;;;;;;;;;;5075729;28;20543;-72
2021/05/07 12:22:36;;;;;;;31.35;30.27;;;;;;;;;;5075677;28;20172;-72
2021/05/07 12:25:12;;;;;;;32.70;31.40;;;;;;;;;;5075759;28;20211;-71
2021/05/07 12:27:40;;;;;;;33.88;32.67;;;;;;;;;;5075609;28;20181;-72
2021/05/07 12:30:19;;;;;;;33.33;32.13;;;;;;;;;;5075502;28;20531;-72
2021/05/07 12:32:57;;;;;;;33.50;32.30;;;;;;;;;;5074273;28;20221;-72
2021/05/07 12:35:35;;;;;;;31.60;30.50;;;;;;;;;;5075434;28;20578;-72
2021/05/07 12:38:02;;;;;;;32.40;31.30;;;;;;;;;;5075484;28;20211;-72
2021/05/07 12:40:28;;;;;;;32.72;31.52;;;;;;;;;;5075298;28;20195;-71
2021/05/07 12:42:53;;;;;;;33.35;31.85;;;;;;;;;;5075359;28;20180;-72
2021/05/07 12:45:19;;;;;;;34.05;32.83;;;;;;;;;;5075229;28;20176;-73
2021/05/07 12:47:45;;;;;;;32.35;31.23;;;;;;;;;;5075227;28;20175;-72
2021/05/07 12:50:11;;;;;;;32.22;31.13;;;;;;;;;;5075010;28;20227;-72
2021/05/07 12:52:38;;;;;;;33.05;31.85;;;;;;;;;;5075218;28;20165;-72
2021/05/07 12:55:04;;;;;;;34.17;32.97;;;;;;;;;;5075047;28;20218;-72
2021/05/07 12:57:30;;;;;;;33.03;31.80;;;;;;;;;;5075118;28;20221;-72
2021/05/07 12:59:56;;;;;;;33.22;31.92;;;;;;;;;;5074961;28;20169;-72
2021/05/07 13:02:22;;;;;;;34.38;33.17;;;;;;;;;;5074969;28;20263;-71
2021/05/07 13:04:48;;;;;;;34.53;33.28;;;;;;;;;;5074893;28;20169;-71
2021/05/07 13:07:14;;;;;;;33.55;32.35;;;;;;;;;;5074746;28;20542;-71
2021/05/07 13:09:41;;;;;;;34.40;33.20;;;;;;;;;;5074711;28;20227;-73
2021/05/07 13:12:07;;;;;;;34.20;33.00;;;;;;;;;;5072625;28;20172;-74
2021/05/07 13:14:33;;;;;;;33.67;32.47;;;;;;;;;;5074586;28;20255;-70
2021/05/07 13:16:59;;;;;;;34.40;33.17;;;;;;;;;;5073435;28;20257;-70
2021/05/07 13:19:25;;;;;;;35.28;33.58;;;;;;;;;;5074593;28;20164;-70
2021/05/07 13:21:53;;;;;;;35.47;34.17;;;;;;;;;;5074635;28;20725;-70
2021/05/07 13:24:19;;;;;;;35.65;34.15;;;;;;;;;;5074479;28;20169;-70
2021/05/07 13:26:45;;;;;;;35.00;33.72;;;;;;;;;;5073191;28;20191;-70
2021/05/07 13:29:11;;;;;;;36.28;34.95;;;;;;;;;;5074310;28;20188;-71
2021/05/07 13:31:37;;;;;;;37.67;36.25;;;;;;;;;;5073038;28;20173;-74
2021/05/07 13:34:03;;;;;;;37.10;35.70;;;;;;;;;;5074390;28;20172;-73
2021/05/07 13:36:29;;;;;;;36.80;35.40;;;;;;;;;;5074141;28;20657;-73
2021/05/07 13:38:57;;;;;;;37.70;36.30;;;;;;;;;;5074168;28;20172;-71
2021/05/07 13:41:23;;;;;;;38.13;36.63;;;;;;;;;;5074131;28;20568;-72
2021/05/07 13:43:49;;;;;;;36.65;35.30;;;;;;;;;;5074080;28;20200;-72
2021/05/07 13:46:15;;;;;;;36.70;35.30;;;;;;;;;;5074056;28;20633;-72
2021/05/07 13:48:41;;;;;;;38.35;36.92;;;;;;;;;;5074286;28;20226;-79
2021/05/07 13:51:07;;;;;;;38.22;36.80;;;;;;;;;;5075364;28;20180;-81
2021/05/07 13:53:33;;;;;;;37.42;36.03;;;;;;;;;;5076069;28;20207;-88
2021/05/07 13:55:59;;;;;;;36.45;34.80;;;;;;;;;;5077569;28;20165;-83
2021/05/07 13:58:25;;;;;;;37.95;36.55;;;;;;;;;;5076120;28;20176;-85
2021/05/07 14:00:51;;;;;;;36.13;34.83;;;;;;;;;;5078730;28;20168;-91
2021/05/07 14:03:17;;;;;;;34.60;33.40;;;;;;;;;;5077428;28;20183;-86
2021/05/07 14:05:43;;;;;;;37.40;36.00;;;;;;;;;;5077417;28;20622;-82
2021/05/07 14:08:09;;;;;;;35.15;33.85;;;;;;;;;;5075237;28;20168;-81
2021/05/07 14:10:35;;;;;;;32.90;31.77;;;;;;;;;;5075062;28;20282;-81
2021/05/07 14:13:01;;;;;;;33.03;31.83;;;;;;;;;;5075320;28;20203;-81
2021/05/07 14:15:27;;;;;;;35.65;34.25;;;;;;;;;;5074662;28;20614;-83
2021/05/07 14:17:53;;;;;;;34.03;32.75;;;;;;;;;;5076359;28;20188;-84
2021/05/07 14:20:19;;;;;;;35.15;33.88;;;;;;;;;;5074672;28;20172;-75
2021/05/07 14:22:46;;;;;;;33.85;32.65;;;;;;;;;;5073466;28;20168;-75
2021/05/07 14:25:12;;;;;;;32.47;31.27;;;;;;;;;;5073256;28;20191;-74
2021/05/07 14:27:38;;;;;;;34.08;32.88;;;;;;;;;;5073423;28;20173;-74
2021/05/07 14:30:05;;;;;;;34.25;32.85;;;;;;;;;;5071935;28;20211;-74
2021/05/07 14:32:31;;;;;;;35.17;33.88;;;;;;;;;;5073335;28;20618;-73
2021/05/07 14:46:27;;;;;;;30.77;29.67;;;;;;;;;;5111314;27;20471;-76
2021/05/07 14:48:53;;;;;;;33.58;32.38;;;;;;;;;;5112121;28;20170;-75
2021/05/07 14:51:19;;;;;;;35.58;33.72;;;;;;;;;;5111233;28;20219;-75
2021/05/07 14:53:45;;;;;;;34.90;33.60;;;;;;;;;;5111136;28;20231;-75
2021/05/07 14:56:12;;;;;;;35.58;34.08;;;;;;;;;;5111051;28;20166;-75
2021/05/07 14:58:38;;;;;;;35.17;33.78;;;;;;;;;;5110960;28;20621;-75
2021/05/07 15:01:05;;;;;;;35.13;33.83;;;;;;;;;;5110921;28;20171;-75
2021/05/07 15:03:31;;;;;;;36.60;35.10;;;;;;;;;;5110971;28;20167;-75
2021/05/07 15:05:59;;;;;;;36.63;35.28;;;;;;;;;;5110866;28;20195;-75
2021/05/07 15:08:25;;;;;;;37.22;35.83;;;;;;;;;;5110904;28;20167;-75
2021/05/07 15:10:51;;;;;;;36.10;34.60;;;;;;;;;;5110742;28;20216;-75
2021/05/07 15:13:17;;;;;;;34.10;32.70;;;;;;;;;;5110715;28;20159;-75
2021/05/07 15:15:45;;;;;;;33.42;32.22;;;;;;;;;;5110739;28;20191;-75
2021/05/07 15:18:11;;;;;;;35.30;34.00;;;;;;;;;;5110768;28;20688;-75
2021/05/07 15:20:37;;;;;;;33.88;32.67;;;;;;;;;;5109268;28;20175;-75
2021/05/07 15:23:04;;;;;;;35.03;33.72;;;;;;;;;;5110474;28;20182;-75
2021/05/07 15:25:30;;;;;;;36.92;35.53;;;;;;;;;;5110288;28;20319;-75
2021/05/07 15:27:56;;;;;;;37.03;35.63;;;;;;;;;;5110310;28;20206;-75
2021/05/07 15:30:22;;;;;;;37.55;36.15;;;;;;;;;;5110485;28;20523;-75
2021/05/07 15:32:48;;;;;;;40.85;39.25;;;;;;;;;;5110312;28;20204;-75
2021/05/07 15:35:14;;;;;;;37.88;36.47;;;;;;;;;;5110275;28;20163;-75
2021/05/07 15:37:47;;;;;;;36.90;35.53;;;;;;;;;;5110234;28;20660;-75
2021/05/07 15:40:13;;;;;;;37.38;35.97;;;;;;;;;;5110229;28;20167;-75
2021/05/07 15:42:39;;;;;;;38.75;37.28;;;;;;;;;;5110232;28;20167;-76
2021/05/07 15:45:06;;;;;;;41.33;39.33;;;;;;;;;;5110023;28;20221;-76
2021/05/07 15:47:32;;;;;;;41.88;40.20;;;;;;;;;;5110249;28;20171;-75
2021/05/07 15:49:59;;;;;;;39.97;38.42;;;;;;;;;;5108804;28;20171;-75
2021/05/07 15:52:25;;;;;;;43.58;41.88;;;;;;;;;;5109992;28;20191;-76
2021/05/07 15:54:51;;;;;;;42.22;40.63;;;;;;;;;;5108698;28;20604;-75
2021/05/07 15:57:18;;;;;;;40.13;38.63;;;;;;;;;;5099278;28;20258;-75
2021/05/07 15:59:44;;;;;;;43.85;41.67;;;;;;;;;;5096298;28;20175;-75
2021/05/07 16:02:10;;;;;;;42.13;40.53;;;;;;;;;;5096268;28;20187;-76
2021/05/07 16:04:36;;;;;;;46.97;45.08;;;;;;;;;;5096184;28;20557;-75
2021/05/07 16:07:04;;;;;;;40.70;39.10;;;;;;;;;;5094773;28;20168;-75
2021/05/07 16:09:30;;;;;;;42.40;40.80;;;;;;;;;;5095953;28;20159;-75
2021/05/07 16:11:56;;;;;;;41.95;40.22;;;;;;;;;;5095956;28;20618;-75
2021/05/07 16:14:22;;;;;;;42.78;41.13;;;;;;;;;;5095755;28;20195;-76
2021/05/07 16:16:52;;;;;;;41.47;39.88;;;;;;;;;;5095991;28;20167;-76
2021/05/07 16:19:20;;;;;;;42.13;40.13;;;;;;;;;;5095858;28;20655;-76
2021/05/07 16:21:47;;;;;;;42.25;40.65;;;;;;;;;;5095452;28;20164;-76
2021/05/07 16:24:12;;;;;;;41.78;40.17;;;;;;;;;;5095761;28;20220;-75
2021/05/07 16:26:39;;;;;;;43.97;42.17;;;;;;;;;;5095515;28;20646;-74
2021/05/07 16:29:05;;;;;;;48.13;46.15;;;;;;;;;;5095585;28;20224;-74
2021/05/07 16:31:31;;;;;;;50.28;48.22;;;;;;;;;;5094340;28;20168;-74
2021/05/07 16:33:57;;;;;;;48.45;46.50;;;;;;;;;;5095661;28;20171;-74
2021/05/07 16:36:24;;;;;;;47.22;45.33;;;;;;;;;;5095462;28;20168;-73
2021/05/07 16:38:50;;;;;;;50.10;48.08;;;;;;;;;;5095430;28;20172;-74
2021/05/07 16:41:16;;;;;;;59.10;56.60;;;;;;;;;;5095388;28;20174;-74
2021/05/07 16:43:44;;;;;;;46.97;45.03;;;;;;;;;;5095387;28;20174;-73
2021/05/07 16:46:10;;;;;;;45.88;44.00;;;;;;;;;;5094707;28;20857;-73
2021/05/07 16:48:36;;;;;;;45.05;43.15;;;;;;;;;;5094650;28;20166;-74
2021/05/07 16:51:03;;;;;;;43.92;42.22;;;;;;;;;;5094944;28;20164;-73
2021/05/07 16:53:29;;;;;;;44.22;42.35;;;;;;;;;;5094626;28;20663;-74
2021/05/07 16:55:55;;;;;;;42.03;40.28;;;;;;;;;;5095151;28;20168;-75
2021/05/07 16:58:21;;;;;;;42.72;41.03;;;;;;;;;;5094133;28;20183;-74
2021/05/07 17:00:48;;;;;;;68.57;65.63;;;;;;;;;;5095097;28;20220;-73
2021/05/07 17:03:14;;;;;;;92.88;88.68;;;;;;;;;;5094972;28;20601;-74
2021/05/07 17:05:42;;;;;;;39.53;38.03;;;;;;;;;;5095013;28;20309;-74
2021/05/07 17:08:08;;;;;;;42.88;41.20;;;;;;;;;;5094373;28;20621;-75
2021/05/07 17:10:34;;;;;;;37.45;36.05;;;;;;;;;;5094900;28;20283;-76
2021/05/07 17:13:01;;;;;;;41.72;40.05;;;;;;;;;;5094556;28;20164;-75
2021/05/07 17:15:27;;;;;;;38.38;36.90;;;;;;;;;;5095519;28;20187;-73
2021/05/07 17:17:53;;;;;;;38.30;36.80;;;;;;;;;;5094712;28;20250;-74
2021/05/07 17:20:19;;;;;;;38.60;37.10;;;;;;;;;;5094673;28;20210;-74
2021/05/07 17:52:43;;;;;;;35.53;34.20;;;;;;;;;;5090837;27;20561;-74
2021/05/07 17:55:10;;;;;;;37.83;36.42;;;;;;;;;;5090866;28;20176;-74
2021/05/07 17:57:36;;;;;;;39.63;38.13;;;;;;;;;;5090820;28;20178;-75
2021/05/07 18:00:03;;;;;;;39.65;38.15;;;;;;;;;;5090735;28;20168;-74
2021/05/07 18:02:29;;;;;;;41.50;39.92;;;;;;;;;;5089565;28;20172;-74
